• Join FlightAware (Why Join?)
  • Login
  • US Flag 
06:32AM EST


 

Airport Tracker/Info


-or-


 

Live Flight TrackerFlight Track Log ✈ AWI3970 ✈ 30-Aug-2013 ✈ KPHL - KALB

Flight Track Log - Related Links

Times and Time Zones

All times are in EDT time to prevent confusion due to time zone crossing. See the AWI3970 flight status page for this flight to view local times or setup timezone preferences in your user account.

Time Position Orientation Groundspeed Altitude Reporting Facility
EDT Latitude Longitude Course Direction KTS MPH feet Rate Location/Type
11:05PM 39.8667 -75.2833 North 163 188 1,100  Level Philadelphia TRACON
11:07PM 39.8139 -74.8529 105° East  Level FlightAware Approximate
11:07PM 39.7847 -75.3578 215° Southwest 179 206 5,400  Level New York Center
11:08PM 39.7882 -74.7245 105° East  Level FlightAware Approximate
11:08PM 39.7781 -75.2603 95° East 144 166 6,800  Level New York Center
11:09PM 39.8488 -74.6346 37° Northeast  Level FlightAware Approximate
11:10PM 39.9330 -74.5667 North  Level FlightAware Approximate
11:10PM 39.7864 -75.0311 87° East 272 313 10,800  Level New York Center
11:11PM 39.7867 -74.9067 90° East 316 364 12,000 1,080 Climbing New York Center
11:12PM 39.7928 -74.7911 86° East 338 389 13,000 1,200 Climbing New York Center
11:13PM 39.8300 -74.6742 67° East 350 403 14,400 1,620 Climbing New York Center
11:14PM 39.9267 -74.5875 35° Northeast 347 399 16,300 1,560 Climbing New York Center
11:15PM 40.0086 -74.5025 38° Northeast 353 406 17,600 1,260 Climbing New York Center
11:16PM 40.0967 -74.4206 35° Northeast 379 436 18,900 1,200 Climbing New York Center
11:17PM 40.1806 -74.3353 38° Northeast 379 436 20,000 1,380 Climbing New York Center
11:18PM 40.2686 -74.2472 37° Northeast 384 442 21,700 1,620 Climbing New York Center
11:19PM 40.3564 -74.1728 33° Northeast 384 442 23,300 960 Climbing New York Center
11:21PM 40.5736 -74.0603 21° North 376 433 25,000 480 Climbing Boston Center
11:22PM 40.6864 -74.0439 North 391 450 25,000  Level Boston Center
11:23PM 40.8053 -74.0358 North 405 466 25,000  Level Boston Center
11:24PM 40.9261 -74.0253 North 417 480 25,000  Level Boston Center
11:25PM 41.0453 -74.0089 North 424 488 25,000  Level Boston Center
11:26PM 41.1664 -73.9953 North 430 495 25,000  Level Boston Center
11:27PM 41.2917 -73.9789 North 440 506 25,000  Level Boston Center
11:28PM 41.4169 -73.9653 North 445 512 25,000 -960 Level Boston Center
11:29PM 41.5378 -73.9517 North 445 512 23,200 -2,040 Descending Boston Center
11:30PM 41.6547 -73.9378 North 433 498 21,100 -2,160 Descending Boston Center
11:31PM 41.7675 -73.9236 North 412 474 18,800 -2,280 Descending Boston Center
11:32PM 41.8678 -73.9092 North 365 420 16,500 -2,160 Descending Boston Center
11:33PM 41.9636 -73.9003 North 352 405 14,500 -2,100 Descending Boston Center
11:34PM 42.0578 -73.8886 North 346 398 12,300 -2,160 Descending Boston Center
11:35PM 42.1078 -73.8869 North 329 379 11,200 -1,020 Descending Boston Center
11:36PM 42.1869 -73.8747 North 336 387 11,000 -180 Descending Boston Center
11:36PM 42.2456 -73.8647 North 333 383 11,000 -300 Level Boston Center
11:37PM 42.3353 -73.8611 North 333 383 10,600 -1,500 Descending Boston Center
11:38PM 42.4186 -73.8547 North 300 345 8,100 -2,280 Descending Boston Center
11:39PM 42.4919 -73.8367 10° North 283 326 6,000 -2,340 Descending Boston Center
11:40PM 42.5650 -73.8214 North 259 298 3,500 -1,800 Descending Boston Center
11:41PM 42.6214 -73.8114 North 246 283 2,500 -600 Descending Boston Center
11:42PM 42.6967 -73.7989 North 246 283 2,300 -240 Descending Boston Center
11:51PM 42.7491 -73.8020 10° North  Level Estimated